sensor_id;sensor_type;location;lat;lon;timestamp;temperature;humidity
25918;DHT22;13899;51.174;4.456;2024-02-23T00:00:50;5.60;99.90
25918;DHT22;13899;51.174;4.456;2024-02-23T00:03:16;5.50;99.90
25918;DHT22;13899;51.174;4.456;2024-02-23T00:05:41;5.70;99.90
25918;DHT22;13899;51.174;4.456;2024-02-23T00:08:07;5.60;99.90
25918;DHT22;13899;51.174;4.456;2024-02-23T00:10:34;5.60;99.90
25918;DHT22;13899;51.174;4.456;2024-02-23T00:12:59;5.60;99.90
25918;DHT22;13899;51.174;4.456;2024-02-23T00:15:26;5.60;99.90
25918;DHT22;13899;51.174;4.456;2024-02-23T00:17:51;5.60;99.90
25918;DHT22;13899;51.174;4.456;2024-02-23T00:20:17;5.60;99.90
25918;DHT22;13899;51.174;4.456;2024-02-23T00:22:42;5.60;99.90
25918;DHT22;13899;51.174;4.456;2024-02-23T00:25:08;5.60;99.90
25918;DHT22;13899;51.174;4.456;2024-02-23T00:27:33;5.50;99.90
25918;DHT22;13899;51.174;4.456;2024-02-23T00:29:59;5.70;99.90
25918;DHT22;13899;51.174;4.456;2024-02-23T00:32:25;5.60;99.90
25918;DHT22;13899;51.174;4.456;2024-02-23T00:34:50;5.70;99.90
25918;DHT22;13899;51.174;4.456;2024-02-23T00:37:16;5.70;99.90
25918;DHT22;13899;51.174;4.456;2024-02-23T00:39:41;5.70;99.90
25918;DHT22;13899;51.174;4.456;2024-02-23T00:42:07;5.80;99.90
25918;DHT22;13899;51.174;4.456;2024-02-23T00:44:32;5.80;99.90
25918;DHT22;13899;51.174;4.456;2024-02-23T00:46:58;5.80;99.90
25918;DHT22;13899;51.174;4.456;2024-02-23T00:49:27;5.90;99.90
25918;DHT22;13899;51.174;4.456;2024-02-23T00:51:52;5.90;99.90
25918;DHT22;13899;51.174;4.456;2024-02-23T00:54:18;5.80;99.90
25918;DHT22;13899;51.174;4.456;2024-02-23T00:56:43;5.80;99.90
25918;DHT22;13899;51.174;4.456;2024-02-23T00:59:10;5.90;99.90
25918;DHT22;13899;51.174;4.456;2024-02-23T01:01:35;5.90;99.90
25918;DHT22;13899;51.174;4.456;2024-02-23T01:04:01;5.90;99.90
25918;DHT22;13899;51.174;4.456;2024-02-23T01:06:26;5.90;99.90
25918;DHT22;13899;51.174;4.456;2024-02-23T01:08:53;5.90;99.90
25918;DHT22;13899;51.174;4.456;2024-02-23T01:11:19;6.00;99.90
25918;DHT22;13899;51.174;4.456;2024-02-23T01:13:44;6.00;99.90
25918;DHT22;13899;51.174;4.456;2024-02-23T01:16:10;5.90;99.90
25918;DHT22;13899;51.174;4.456;2024-02-23T01:18:35;5.90;99.90
25918;DHT22;13899;51.174;4.456;2024-02-23T01:21:01;5.90;99.90
25918;DHT22;13899;51.174;4.456;2024-02-23T01:23:26;5.90;99.90
25918;DHT22;13899;51.174;4.456;2024-02-23T01:25:52;5.90;99.90
25918;DHT22;13899;51.174;4.456;2024-02-23T01:28:18;5.60;99.90
25918;DHT22;13899;51.174;4.456;2024-02-23T01:30:43;5.50;99.90
25918;DHT22;13899;51.174;4.456;2024-02-23T01:33:09;5.40;99.90
25918;DHT22;13899;51.174;4.456;2024-02-23T01:35:34;5.40;99.90
25918;DHT22;13899;51.174;4.456;2024-02-23T01:38:02;5.30;99.90
25918;DHT22;13899;51.174;4.456;2024-02-23T01:40:28;5.40;99.90
25918;DHT22;13899;51.174;4.456;2024-02-23T01:43:03;5.30;99.90
25918;DHT22;13899;51.174;4.456;2024-02-23T01:45:29;5.30;99.90
25918;DHT22;13899;51.174;4.456;2024-02-23T01:47:55;5.30;99.90
25918;DHT22;13899;51.174;4.456;2024-02-23T01:50:21;5.30;99.90
25918;DHT22;13899;51.174;4.456;2024-02-23T01:52:46;5.30;99.90
25918;DHT22;13899;51.174;4.456;2024-02-23T01:55:12;5.20;99.90
25918;DHT22;13899;51.174;4.456;2024-02-23T01:57:37;5.20;99.90
25918;DHT22;13899;51.174;4.456;2024-02-23T02:00:04;5.10;99.90
25918;DHT22;13899;51.174;4.456;2024-02-23T02:02:30;5.10;99.90
25918;DHT22;13899;51.174;4.456;2024-02-23T02:04:56;5.00;99.90
25918;DHT22;13899;51.174;4.456;2024-02-23T02:07:22;5.10;99.90
25918;DHT22;13899;51.174;4.456;2024-02-23T02:09:50;5.10;99.90
25918;DHT22;13899;51.174;4.456;2024-02-23T02:12:25;5.10;99.90
25918;DHT22;13899;51.174;4.456;2024-02-23T02:14:51;5.20;99.90
25918;DHT22;13899;51.174;4.456;2024-02-23T02:17:16;5.10;99.90
25918;DHT22;13899;51.174;4.456;2024-02-23T02:19:46;5.20;99.90
25918;DHT22;13899;51.174;4.456;2024-02-23T02:22:11;5.20;99.90
25918;DHT22;13899;51.174;4.456;2024-02-23T02:24:37;5.20;99.90
25918;DHT22;13899;51.174;4.456;2024-02-23T02:27:06;5.20;99.90
25918;DHT22;13899;51.174;4.456;2024-02-23T02:29:32;5.30;99.90
25918;DHT22;13899;51.174;4.456;2024-02-23T02:31:57;5.20;99.90
25918;DHT22;13899;51.174;4.456;2024-02-23T02:34:23;5.30;99.90
25918;DHT22;13899;51.174;4.456;2024-02-23T02:36:48;5.30;99.90
25918;DHT22;13899;51.174;4.456;2024-02-23T02:39:14;5.40;99.90
25918;DHT22;13899;51.174;4.456;2024-02-23T02:41:39;5.40;99.90
25918;DHT22;13899;51.174;4.456;2024-02-23T02:44:05;5.40;99.90
25918;DHT22;13899;51.174;4.456;2024-02-23T02:46:30;5.30;99.90
25918;DHT22;13899;51.174;4.456;2024-02-23T02:48:56;5.50;99.90
25918;DHT22;13899;51.174;4.456;2024-02-23T02:51:21;5.50;99.90
25918;DHT22;13899;51.174;4.456;2024-02-23T02:53:47;5.40;99.90
25918;DHT22;13899;51.174;4.456;2024-02-23T02:56:12;5.50;99.90
25918;DHT22;13899;51.174;4.456;2024-02-23T02:58:38;5.40;99.90
25918;DHT22;13899;51.174;4.456;2024-02-23T03:01:03;5.40;99.90
25918;DHT22;13899;51.174;4.456;2024-02-23T03:03:29;5.50;99.90
25918;DHT22;13899;51.174;4.456;2024-02-23T03:05:55;5.50;99.90
25918;DHT22;13899;51.174;4.456;2024-02-23T03:08:20;5.50;99.90
25918;DHT22;13899;51.174;4.456;2024-02-23T03:10:46;5.50;99.90
25918;DHT22;13899;51.174;4.456;2024-02-23T03:13:11;5.50;99.90
25918;DHT22;13899;51.174;4.456;2024-02-23T03:15:37;5.50;99.90
25918;DHT22;13899;51.174;4.456;2024-02-23T03:18:02;5.40;99.90
25918;DHT22;13899;51.174;4.456;2024-02-23T03:20:28;5.40;99.90
25918;DHT22;13899;51.174;4.456;2024-02-23T03:22:53;5.50;99.90
25918;DHT22;13899;51.174;4.456;2024-02-23T03:25:19;5.50;99.90
25918;DHT22;13899;51.174;4.456;2024-02-23T03:27:45;5.50;99.90
25918;DHT22;13899;51.174;4.456;2024-02-23T03:30:11;5.40;99.90
25918;DHT22;13899;51.174;4.456;2024-02-23T03:32:36;5.40;99.90
25918;DHT22;13899;51.174;4.456;2024-02-23T03:35:02;5.40;99.90
25918;DHT22;13899;51.174;4.456;2024-02-23T03:37:28;5.60;99.90
25918;DHT22;13899;51.174;4.456;2024-02-23T03:39:54;5.40;99.90
25918;DHT22;13899;51.174;4.456;2024-02-23T03:42:19;5.40;99.90
25918;DHT22;13899;51.174;4.456;2024-02-23T03:44:45;5.40;99.90
25918;DHT22;13899;51.174;4.456;2024-02-23T03:47:10;5.50;99.90
25918;DHT22;13899;51.174;4.456;2024-02-23T03:49:37;5.50;99.90
25918;DHT22;13899;51.174;4.456;2024-02-23T03:52:03;5.60;99.90
25918;DHT22;13899;51.174;4.456;2024-02-23T03:54:29;5.60;99.90
25918;DHT22;13899;51.174;4.456;2024-02-23T03:56:56;5.60;99.90
25918;DHT22;13899;51.174;4.456;2024-02-23T03:59:21;5.60;99.90
25918;DHT22;13899;51.174;4.456;2024-02-23T04:01:47;5.60;99.90
25918;DHT22;13899;51.174;4.456;2024-02-23T04:04:12;5.70;99.90
25918;DHT22;13899;51.174;4.456;2024-02-23T04:06:37;5.70;99.90
25918;DHT22;13899;51.174;4.456;2024-02-23T04:09:03;5.70;99.90
25918;DHT22;13899;51.174;4.456;2024-02-23T04:11:34;5.70;99.90
25918;DHT22;13899;51.174;4.456;2024-02-23T04:13:59;5.80;99.90
25918;DHT22;13899;51.174;4.456;2024-02-23T04:16:26;5.80;99.90
25918;DHT22;13899;51.174;4.456;2024-02-23T04:18:51;5.90;99.90
25918;DHT22;13899;51.174;4.456;2024-02-23T04:21:17;5.90;99.90
25918;DHT22;13899;51.174;4.456;2024-02-23T04:23:45;5.90;99.90
25918;DHT22;13899;51.174;4.456;2024-02-23T04:26:11;5.90;99.90
25918;DHT22;13899;51.174;4.456;2024-02-23T04:28:40;5.80;99.90
25918;DHT22;13899;51.174;4.456;2024-02-23T04:31:06;5.80;99.90
25918;DHT22;13899;51.174;4.456;2024-02-23T04:33:31;5.80;99.90
25918;DHT22;13899;51.174;4.456;2024-02-23T04:35:58;5.90;99.90
25918;DHT22;13899;51.174;4.456;2024-02-23T04:38:23;5.80;99.90
25918;DHT22;13899;51.174;4.456;2024-02-23T04:40:49;5.80;99.90
25918;DHT22;13899;51.174;4.456;2024-02-23T04:43:14;5.80;99.90
25918;DHT22;13899;51.174;4.456;2024-02-23T04:45:40;5.80;99.90
25918;DHT22;13899;51.174;4.456;2024-02-23T04:48:05;5.90;99.90
25918;DHT22;13899;51.174;4.456;2024-02-23T04:50:31;5.90;99.90
25918;DHT22;13899;51.174;4.456;2024-02-23T04:52:56;5.90;99.90
25918;DHT22;13899;51.174;4.456;2024-02-23T04:55:22;5.90;99.90
25918;DHT22;13899;51.174;4.456;2024-02-23T04:57:48;5.90;99.90
25918;DHT22;13899;51.174;4.456;2024-02-23T05:00:13;5.90;99.90
25918;DHT22;13899;51.174;4.456;2024-02-23T05:02:39;5.90;99.90
25918;DHT22;13899;51.174;4.456;2024-02-23T05:05:06;6.00;99.90
25918;DHT22;13899;51.174;4.456;2024-02-23T05:07:32;5.90;99.90
25918;DHT22;13899;51.174;4.456;2024-02-23T05:09:57;5.90;99.90
25918;DHT22;13899;51.174;4.456;2024-02-23T05:12:23;5.90;99.90
25918;DHT22;13899;51.174;4.456;2024-02-23T05:14:48;5.90;99.90
25918;DHT22;13899;51.174;4.456;2024-02-23T05:17:14;5.80;99.90
25918;DHT22;13899;51.174;4.456;2024-02-23T05:19:39;5.80;99.90
25918;DHT22;13899;51.174;4.456;2024-02-23T05:22:05;5.90;99.90
25918;DHT22;13899;51.174;4.456;2024-02-23T05:24:30;5.90;99.90
25918;DHT22;13899;51.174;4.456;2024-02-23T05:26:56;5.90;99.90
25918;DHT22;13899;51.174;4.456;2024-02-23T05:29:23;5.90;99.90
25918;DHT22;13899;51.174;4.456;2024-02-23T05:31:49;5.90;99.90
25918;DHT22;13899;51.174;4.456;2024-02-23T05:34:15;5.90;99.90
25918;DHT22;13899;51.174;4.456;2024-02-23T05:36:41;5.90;99.90
25918;DHT22;13899;51.174;4.456;2024-02-23T05:39:07;6.00;99.90
25918;DHT22;13899;51.174;4.456;2024-02-23T05:41:35;6.00;99.90
25918;DHT22;13899;51.174;4.456;2024-02-23T05:44:01;6.00;99.90
25918;DHT22;13899;51.174;4.456;2024-02-23T05:46:31;6.00;99.90
25918;DHT22;13899;51.174;4.456;2024-02-23T05:48:57;6.00;99.90
25918;DHT22;13899;51.174;4.456;2024-02-23T05:51:22;6.10;99.90
25918;DHT22;13899;51.174;4.456;2024-02-23T05:53:48;6.00;99.90
25918;DHT22;13899;51.174;4.456;2024-02-23T05:56:14;6.10;99.90
25918;DHT22;13899;51.174;4.456;2024-02-23T05:58:39;6.10;99.90
25918;DHT22;13899;51.174;4.456;2024-02-23T06:01:05;6.10;99.90
25918;DHT22;13899;51.174;4.456;2024-02-23T06:03:30;6.10;99.90
25918;DHT22;13899;51.174;4.456;2024-02-23T06:05:56;6.10;99.90
25918;DHT22;13899;51.174;4.456;2024-02-23T06:08:21;6.20;99.90
25918;DHT22;13899;51.174;4.456;2024-02-23T06:10:47;6.20;99.90
25918;DHT22;13899;51.174;4.456;2024-02-23T06:13:13;6.10;99.90
25918;DHT22;13899;51.174;4.456;2024-02-23T06:15:38;6.10;99.90
25918;DHT22;13899;51.174;4.456;2024-02-23T06:18:04;6.20;99.90
25918;DHT22;13899;51.174;4.456;2024-02-23T06:20:29;6.10;99.90
25918;DHT22;13899;51.174;4.456;2024-02-23T06:22:55;6.20;99.90
25918;DHT22;13899;51.174;4.456;2024-02-23T06:25:21;6.10;99.90
25918;DHT22;13899;51.174;4.456;2024-02-23T06:27:46;6.10;99.90
25918;DHT22;13899;51.174;4.456;2024-02-23T06:30:12;6.10;99.90
25918;DHT22;13899;51.174;4.456;2024-02-23T06:32:37;6.10;99.90
25918;DHT22;13899;51.174;4.456;2024-02-23T06:35:03;6.10;99.90
25918;DHT22;13899;51.174;4.456;2024-02-23T06:37:28;6.10;99.90
25918;DHT22;13899;51.174;4.456;2024-02-23T06:39:54;6.10;99.90
25918;DHT22;13899;51.174;4.456;2024-02-23T06:42:20;6.20;99.90
25918;DHT22;13899;51.174;4.456;2024-02-23T06:44:46;6.10;99.90
25918;DHT22;13899;51.174;4.456;2024-02-23T06:47:11;6.20;99.90
25918;DHT22;13899;51.174;4.456;2024-02-23T06:49:40;6.20;99.90
25918;DHT22;13899;51.174;4.456;2024-02-23T06:52:06;6.20;99.90
25918;DHT22;13899;51.174;4.456;2024-02-23T06:54:31;6.20;99.90
25918;DHT22;13899;51.174;4.456;2024-02-23T06:56:57;6.20;99.90
25918;DHT22;13899;51.174;4.456;2024-02-23T06:59:23;6.20;99.90
25918;DHT22;13899;51.174;4.456;2024-02-23T07:01:50;6.30;99.90
25918;DHT22;13899;51.174;4.456;2024-02-23T07:04:15;6.20;99.90
25918;DHT22;13899;51.174;4.456;2024-02-23T07:06:41;6.20;99.90
25918;DHT22;13899;51.174;4.456;2024-02-23T07:09:06;6.30;99.90
25918;DHT22;13899;51.174;4.456;2024-02-23T07:11:33;6.40;99.90
25918;DHT22;13899;51.174;4.456;2024-02-23T07:13:58;6.20;99.90
25918;DHT22;13899;51.174;4.456;2024-02-23T07:16:24;6.40;99.90
25918;DHT22;13899;51.174;4.456;2024-02-23T07:18:49;6.40;99.90
25918;DHT22;13899;51.174;4.456;2024-02-23T07:21:17;6.40;99.90
25918;DHT22;13899;51.174;4.456;2024-02-23T07:23:43;6.40;99.90
25918;DHT22;13899;51.174;4.456;2024-02-23T07:26:11;6.40;99.90
25918;DHT22;13899;51.174;4.456;2024-02-23T07:28:36;6.30;99.90
25918;DHT22;13899;51.174;4.456;2024-02-23T07:31:02;6.30;99.90
25918;DHT22;13899;51.174;4.456;2024-02-23T07:33:28;6.40;99.90
25918;DHT22;13899;51.174;4.456;2024-02-23T07:35:54;6.40;99.90
25918;DHT22;13899;51.174;4.456;2024-02-23T07:38:19;6.50;99.90
25918;DHT22;13899;51.174;4.456;2024-02-23T07:40:45;6.50;99.90
25918;DHT22;13899;51.174;4.456;2024-02-23T07:43:10;6.60;99.90
25918;DHT22;13899;51.174;4.456;2024-02-23T07:45:39;6.60;99.90
25918;DHT22;13899;51.174;4.456;2024-02-23T07:48:04;6.70;99.90
25918;DHT22;13899;51.174;4.456;2024-02-23T07:50:30;6.70;99.90
25918;DHT22;13899;51.174;4.456;2024-02-23T07:52:55;6.90;99.90
25918;DHT22;13899;51.174;4.456;2024-02-23T07:55:21;6.90;99.90
25918;DHT22;13899;51.174;4.456;2024-02-23T07:57:47;6.90;99.90
25918;DHT22;13899;51.174;4.456;2024-02-23T08:00:13;6.80;99.90
25918;DHT22;13899;51.174;4.456;2024-02-23T08:02:39;6.80;99.90
25918;DHT22;13899;51.174;4.456;2024-02-23T08:05:05;6.80;99.90
25918;DHT22;13899;51.174;4.456;2024-02-23T08:07:30;6.80;99.90
25918;DHT22;13899;51.174;4.456;2024-02-23T08:09:56;6.90;99.90
25918;DHT22;13899;51.174;4.456;2024-02-23T08:12:22;6.90;99.90
25918;DHT22;13899;51.174;4.456;2024-02-23T08:14:48;6.80;99.90
25918;DHT22;13899;51.174;4.456;2024-02-23T08:17:15;6.70;99.90
25918;DHT22;13899;51.174;4.456;2024-02-23T08:19:42;6.40;99.90
25918;DHT22;13899;51.174;4.456;2024-02-23T08:22:07;6.30;99.90
25918;DHT22;13899;51.174;4.456;2024-02-23T08:24:33;6.10;99.90
25918;DHT22;13899;51.174;4.456;2024-02-23T08:26:58;6.10;99.90
25918;DHT22;13899;51.174;4.456;2024-02-23T08:29:25;6.00;99.90
25918;DHT22;13899;51.174;4.456;2024-02-23T08:31:51;5.90;99.90
25918;DHT22;13899;51.174;4.456;2024-02-23T08:34:16;6.00;99.90
25918;DHT22;13899;51.174;4.456;2024-02-23T08:36:43;6.00;99.90
25918;DHT22;13899;51.174;4.456;2024-02-23T08:39:08;5.90;99.90
25918;DHT22;13899;51.174;4.456;2024-02-23T08:41:34;6.00;99.90
25918;DHT22;13899;51.174;4.456;2024-02-23T08:43:59;6.00;99.90
25918;DHT22;13899;51.174;4.456;2024-02-23T08:46:25;6.00;99.90
25918;DHT22;13899;51.174;4.456;2024-02-23T08:48:50;6.10;99.90
25918;DHT22;13899;51.174;4.456;2024-02-23T08:51:16;6.10;99.90
25918;DHT22;13899;51.174;4.456;2024-02-23T08:53:41;6.10;99.90
25918;DHT22;13899;51.174;4.456;2024-02-23T08:56:07;6.00;99.90
25918;DHT22;13899;51.174;4.456;2024-02-23T08:58:33;6.20;99.90
25918;DHT22;13899;51.174;4.456;2024-02-23T09:00:58;6.10;99.90
25918;DHT22;13899;51.174;4.456;2024-02-23T09:03:24;6.10;99.90
25918;DHT22;13899;51.174;4.456;2024-02-23T09:05:49;6.20;99.90
25918;DHT22;13899;51.174;4.456;2024-02-23T09:08:15;6.30;99.90
25918;DHT22;13899;51.174;4.456;2024-02-23T09:10:41;6.30;99.90
25918;DHT22;13899;51.174;4.456;2024-02-23T09:13:06;6.30;99.90
25918;DHT22;13899;51.174;4.456;2024-02-23T09:15:32;6.30;99.90
25918;DHT22;13899;51.174;4.456;2024-02-23T09:17:57;6.30;99.90
25918;DHT22;13899;51.174;4.456;2024-02-23T09:20:22;6.30;99.90
25918;DHT22;13899;51.174;4.456;2024-02-23T09:22:48;6.30;99.90
25918;DHT22;13899;51.174;4.456;2024-02-23T09:25:16;6.40;99.90
25918;DHT22;13899;51.174;4.456;2024-02-23T09:27:42;6.40;99.90
25918;DHT22;13899;51.174;4.456;2024-02-23T09:30:11;6.50;99.90
25918;DHT22;13899;51.174;4.456;2024-02-23T09:32:38;6.50;99.90
25918;DHT22;13899;51.174;4.456;2024-02-23T09:35:04;6.60;99.90
25918;DHT22;13899;51.174;4.456;2024-02-23T09:37:30;6.60;99.90
25918;DHT22;13899;51.174;4.456;2024-02-23T09:39:56;6.70;99.90
25918;DHT22;13899;51.174;4.456;2024-02-23T09:42:22;6.80;99.90
25918;DHT22;13899;51.174;4.456;2024-02-23T09:44:52;6.90;99.90
25918;DHT22;13899;51.174;4.456;2024-02-23T09:47:22;7.00;99.90
25918;DHT22;13899;51.174;4.456;2024-02-23T09:49:48;7.00;99.90
25918;DHT22;13899;51.174;4.456;2024-02-23T09:52:15;7.00;99.90
25918;DHT22;13899;51.174;4.456;2024-02-23T09:54:41;7.10;99.90
25918;DHT22;13899;51.174;4.456;2024-02-23T09:57:07;7.20;99.90
25918;DHT22;13899;51.174;4.456;2024-02-23T09:59:34;7.30;99.90
25918;DHT22;13899;51.174;4.456;2024-02-23T10:01:59;7.20;99.90
25918;DHT22;13899;51.174;4.456;2024-02-23T10:04:26;7.20;99.90
25918;DHT22;13899;51.174;4.456;2024-02-23T10:06:54;7.30;99.90
25918;DHT22;13899;51.174;4.456;2024-02-23T10:09:20;7.30;99.90
25918;DHT22;13899;51.174;4.456;2024-02-23T10:11:51;7.30;99.90
25918;DHT22;13899;51.174;4.456;2024-02-23T10:14:17;7.30;99.90
25918;DHT22;13899;51.174;4.456;2024-02-23T10:16:42;7.40;99.90
25918;DHT22;13899;51.174;4.456;2024-02-23T10:19:09;7.40;99.90
25918;DHT22;13899;51.174;4.456;2024-02-23T10:21:35;7.40;99.90
25918;DHT22;13899;51.174;4.456;2024-02-23T10:24:02;7.50;99.90
25918;DHT22;13899;51.174;4.456;2024-02-23T10:26:27;7.50;99.90
25918;DHT22;13899;51.174;4.456;2024-02-23T10:28:53;7.50;99.90
25918;DHT22;13899;51.174;4.456;2024-02-23T10:31:18;7.40;99.90
25918;DHT22;13899;51.174;4.456;2024-02-23T10:33:44;7.60;99.90
25918;DHT22;13899;51.174;4.456;2024-02-23T10:36:10;7.60;99.90
25918;DHT22;13899;51.174;4.456;2024-02-23T10:38:37;7.70;99.90
25918;DHT22;13899;51.174;4.456;2024-02-23T10:41:06;7.80;99.90
25918;DHT22;13899;51.174;4.456;2024-02-23T10:43:45;7.90;99.90
25918;DHT22;13899;51.174;4.456;2024-02-23T10:46:12;7.80;99.90
25918;DHT22;13899;51.174;4.456;2024-02-23T10:48:41;7.70;99.90
25918;DHT22;13899;51.174;4.456;2024-02-23T10:51:07;7.70;99.90
25918;DHT22;13899;51.174;4.456;2024-02-23T10:53:33;7.70;99.90
25918;DHT22;13899;51.174;4.456;2024-02-23T10:56:00;7.70;99.90
25918;DHT22;13899;51.174;4.456;2024-02-23T10:58:25;7.60;99.90
25918;DHT22;13899;51.174;4.456;2024-02-23T11:00:51;7.70;99.90
25918;DHT22;13899;51.174;4.456;2024-02-23T11:03:17;8.00;99.90
25918;DHT22;13899;51.174;4.456;2024-02-23T11:05:47;7.90;99.90
25918;DHT22;13899;51.174;4.456;2024-02-23T11:08:12;8.00;99.90
25918;DHT22;13899;51.174;4.456;2024-02-23T11:10:41;7.90;99.90
25918;DHT22;13899;51.174;4.456;2024-02-23T11:13:07;8.10;99.90
25918;DHT22;13899;51.174;4.456;2024-02-23T11:15:33;8.40;99.90
25918;DHT22;13899;51.174;4.456;2024-02-23T11:18:20;8.80;99.90
25918;DHT22;13899;51.174;4.456;2024-02-23T11:20:52;8.50;99.90
25918;DHT22;13899;51.174;4.456;2024-02-23T11:23:18;8.60;99.90
25918;DHT22;13899;51.174;4.456;2024-02-23T11:25:58;8.60;99.90
25918;DHT22;13899;51.174;4.456;2024-02-23T11:28:26;9.40;99.90
25918;DHT22;13899;51.174;4.456;2024-02-23T11:30:52;9.70;99.90
25918;DHT22;13899;51.174;4.456;2024-02-23T11:33:28;9.80;99.90
25918;DHT22;13899;51.174;4.456;2024-02-23T11:36:04;10.50;99.90
25918;DHT22;13899;51.174;4.456;2024-02-23T11:38:29;10.50;99.90
25918;DHT22;13899;51.174;4.456;2024-02-23T11:40:55;10.40;99.90
25918;DHT22;13899;51.174;4.456;2024-02-23T11:43:22;10.00;99.90
25918;DHT22;13899;51.174;4.456;2024-02-23T11:45:48;9.70;99.90
25918;DHT22;13899;51.174;4.456;2024-02-23T11:48:13;9.30;99.90
25918;DHT22;13899;51.174;4.456;2024-02-23T11:50:39;9.20;99.90
25918;DHT22;13899;51.174;4.456;2024-02-23T11:53:04;9.10;99.90
25918;DHT22;13899;51.174;4.456;2024-02-23T11:55:30;9.00;99.90
25918;DHT22;13899;51.174;4.456;2024-02-23T11:57:56;9.00;99.90
25918;DHT22;13899;51.174;4.456;2024-02-23T12:00:23;8.90;99.90
25918;DHT22;13899;51.174;4.456;2024-02-23T12:02:48;8.80;99.90
25918;DHT22;13899;51.174;4.456;2024-02-23T12:05:15;8.70;99.90
25918;DHT22;13899;51.174;4.456;2024-02-23T12:07:42;8.60;99.90
25918;DHT22;13899;51.174;4.456;2024-02-23T12:10:08;8.80;99.90
25918;DHT22;13899;51.174;4.456;2024-02-23T12:12:34;8.80;99.90
25918;DHT22;13899;51.174;4.456;2024-02-23T12:14:59;8.90;99.90
25918;DHT22;13899;51.174;4.456;2024-02-23T12:17:25;9.10;99.90
25918;DHT22;13899;51.174;4.456;2024-02-23T12:19:58;8.70;99.90
25918;DHT22;13899;51.174;4.456;2024-02-23T12:22:24;9.00;99.90
25918;DHT22;13899;51.174;4.456;2024-02-23T12:24:50;8.80;99.90
25918;DHT22;13899;51.174;4.456;2024-02-23T12:27:18;8.70;99.90
25918;DHT22;13899;51.174;4.456;2024-02-23T12:29:51;8.80;99.90
25918;DHT22;13899;51.174;4.456;2024-02-23T12:32:19;8.80;99.90
25918;DHT22;13899;51.174;4.456;2024-02-23T12:34:45;8.60;99.90
25918;DHT22;13899;51.174;4.456;2024-02-23T12:37:10;8.70;99.90
25918;DHT22;13899;51.174;4.456;2024-02-23T12:39:36;8.60;99.90
25918;DHT22;13899;51.174;4.456;2024-02-23T12:42:01;8.70;99.90
25918;DHT22;13899;51.174;4.456;2024-02-23T12:44:27;8.80;99.90
25918;DHT22;13899;51.174;4.456;2024-02-23T12:46:52;8.70;99.90
25918;DHT22;13899;51.174;4.456;2024-02-23T12:49:18;8.70;99.90
25918;DHT22;13899;51.174;4.456;2024-02-23T12:51:43;8.60;99.90
25918;DHT22;13899;51.174;4.456;2024-02-23T12:54:09;8.60;99.90
25918;DHT22;13899;51.174;4.456;2024-02-23T12:56:34;8.50;99.90
25918;DHT22;13899;51.174;4.456;2024-02-23T12:59:00;8.70;99.90
25918;DHT22;13899;51.174;4.456;2024-02-23T13:01:26;8.70;99.90
25918;DHT22;13899;51.174;4.456;2024-02-23T13:03:51;8.70;99.90
25918;DHT22;13899;51.174;4.456;2024-02-23T13:06:17;8.60;99.90
25918;DHT22;13899;51.174;4.456;2024-02-23T13:08:43;8.80;99.90
25918;DHT22;13899;51.174;4.456;2024-02-23T13:11:08;8.80;99.90
25918;DHT22;13899;51.174;4.456;2024-02-23T13:13:34;8.70;99.90
25918;DHT22;13899;51.174;4.456;2024-02-23T13:16:00;8.80;99.90
25918;DHT22;13899;51.174;4.456;2024-02-23T13:18:25;8.90;99.90
25918;DHT22;13899;51.174;4.456;2024-02-23T13:20:51;9.20;99.90
25918;DHT22;13899;51.174;4.456;2024-02-23T13:23:16;9.10;99.90
25918;DHT22;13899;51.174;4.456;2024-02-23T13:25:43;9.00;99.90
25918;DHT22;13899;51.174;4.456;2024-02-23T13:28:09;8.90;99.90
25918;DHT22;13899;51.174;4.456;2024-02-23T13:30:35;9.10;99.90
25918;DHT22;13899;51.174;4.456;2024-02-23T13:33:01;8.90;99.90
25918;DHT22;13899;51.174;4.456;2024-02-23T13:35:27;9.00;99.90
25918;DHT22;13899;51.174;4.456;2024-02-23T13:37:52;9.10;99.90
25918;DHT22;13899;51.174;4.456;2024-02-23T13:40:18;9.00;99.90
25918;DHT22;13899;51.174;4.456;2024-02-23T13:42:43;8.90;99.90
25918;DHT22;13899;51.174;4.456;2024-02-23T13:45:11;8.70;99.90
25918;DHT22;13899;51.174;4.456;2024-02-23T13:47:40;8.80;99.90
25918;DHT22;13899;51.174;4.456;2024-02-23T13:50:06;9.00;99.90
25918;DHT22;13899;51.174;4.456;2024-02-23T13:52:31;9.10;99.90
25918;DHT22;13899;51.174;4.456;2024-02-23T13:54:57;9.20;99.90
25918;DHT22;13899;51.174;4.456;2024-02-23T13:57:23;9.40;99.90
25918;DHT22;13899;51.174;4.456;2024-02-23T13:59:48;9.40;99.90
25918;DHT22;13899;51.174;4.456;2024-02-23T14:02:14;9.30;99.90
25918;DHT22;13899;51.174;4.456;2024-02-23T14:04:40;9.10;99.90
25918;DHT22;13899;51.174;4.456;2024-02-23T14:07:06;9.30;99.90
25918;DHT22;13899;51.174;4.456;2024-02-23T14:09:31;9.30;99.90
25918;DHT22;13899;51.174;4.456;2024-02-23T14:11:57;9.30;99.90
25918;DHT22;13899;51.174;4.456;2024-02-23T14:14:22;9.40;99.90
25918;DHT22;13899;51.174;4.456;2024-02-23T14:16:49;9.50;99.90
25918;DHT22;13899;51.174;4.456;2024-02-23T14:19:14;9.60;99.90
25918;DHT22;13899;51.174;4.456;2024-02-23T14:21:40;9.60;99.90
25918;DHT22;13899;51.174;4.456;2024-02-23T14:24:06;9.40;99.90
25918;DHT22;13899;51.174;4.456;2024-02-23T14:26:31;9.60;99.90
25918;DHT22;13899;51.174;4.456;2024-02-23T14:28:57;9.60;99.90
25918;DHT22;13899;51.174;4.456;2024-02-23T14:31:23;9.50;99.90
25918;DHT22;13899;51.174;4.456;2024-02-23T14:33:49;9.40;99.90
25918;DHT22;13899;51.174;4.456;2024-02-23T14:36:16;9.20;99.90
25918;DHT22;13899;51.174;4.456;2024-02-23T14:38:42;9.20;99.90
25918;DHT22;13899;51.174;4.456;2024-02-23T14:41:08;9.30;99.90
25918;DHT22;13899;51.174;4.456;2024-02-23T14:43:34;9.30;99.90
25918;DHT22;13899;51.174;4.456;2024-02-23T14:46:00;9.40;99.90
25918;DHT22;13899;51.174;4.456;2024-02-23T14:48:25;9.40;99.90
25918;DHT22;13899;51.174;4.456;2024-02-23T14:50:51;9.30;99.90
25918;DHT22;13899;51.174;4.456;2024-02-23T14:53:16;9.30;99.90
25918;DHT22;13899;51.174;4.456;2024-02-23T14:55:42;9.30;99.90
25918;DHT22;13899;51.174;4.456;2024-02-23T14:58:08;9.40;99.90
25918;DHT22;13899;51.174;4.456;2024-02-23T15:00:33;9.30;99.90
25918;DHT22;13899;51.174;4.456;2024-02-23T15:02:59;9.30;99.90
25918;DHT22;13899;51.174;4.456;2024-02-23T15:05:24;9.40;99.90
25918;DHT22;13899;51.174;4.456;2024-02-23T15:07:50;9.50;99.90
25918;DHT22;13899;51.174;4.456;2024-02-23T15:10:15;9.40;99.90
25918;DHT22;13899;51.174;4.456;2024-02-23T15:12:41;9.50;99.90
25918;DHT22;13899;51.174;4.456;2024-02-23T15:15:07;10.30;99.90
25918;DHT22;13899;51.174;4.456;2024-02-23T15:17:32;11.60;99.90
25918;DHT22;13899;51.174;4.456;2024-02-23T15:19:58;12.00;99.90
25918;DHT22;13899;51.174;4.456;2024-02-23T15:22:24;13.20;99.90
25918;DHT22;13899;51.174;4.456;2024-02-23T15:24:51;12.40;99.90
25918;DHT22;13899;51.174;4.456;2024-02-23T15:27:16;11.10;99.90
25918;DHT22;13899;51.174;4.456;2024-02-23T15:29:42;10.80;99.90
25918;DHT22;13899;51.174;4.456;2024-02-23T15:32:08;10.80;99.90
25918;DHT22;13899;51.174;4.456;2024-02-23T15:34:34;10.10;99.90
25918;DHT22;13899;51.174;4.456;2024-02-23T15:36:59;9.60;99.90